Aviation Digital Data Service (ADDS)

Output produced by METARs form (0215 UTC 16 January 2019)
found at http://www.aviationweather.gov/metar/data/
 
FIMR 160200Z 07009KT 9999 FEW018 26/23 Q1017
TAF FIMR 152335Z 1600/1618 07012KT 9999 SCT018 
     TEMPO 7000 -SHRA BKN016 BKN050
       
FIMP 160200Z 32004KT 9999 SCT018 24/22 Q1016
TAF FIMP 152330Z 1600/1706 34003KT 9999 SCT018 
     BECMG 1604/1606 07010KT 
     PROB30 
     TEMPO 1608/1618 7000 -SHRA BKN015